Time;durP1;ratioP1;P1;durP2;ratioP2;P2;SDS_P1;SDS_P2;PMS_P1;PMS_P2;Temp;Humidity;BMP_temperature;BMP_pressure;BME280_temperature;BME280_humidity;BME280_pressure;Samples;Min_cycle;Max_cycle;Signal;HPM_P1;HPM_P2
2021/03/23 00:00:13;;;;;;;11.03;8.80;;;7.40;1.00;;;;;;5095610;28;20165;-68
2021/03/23 00:02:38;;;;;;;13.70;7.97;;;7.30;1.00;;;;;;5095138;28;20192;-69
2021/03/23 00:05:07;;;;;;;11.63;7.47;;;7.20;1.00;;;;;;5095237;28;20547;-69
2021/03/23 00:07:33;;;;;;;12.23;8.63;;;7.20;1.00;;;;;;5095415;28;20258;-68
2021/03/23 00:09:58;;;;;;;9.77;7.93;;;7.30;1.00;;;;;;5094942;28;20667;-69
2021/03/23 00:12:24;;;;;;;11.33;7.27;;;7.30;1.00;;;;;;5095010;28;20309;-69
2021/03/23 00:14:49;;;;;;;9.97;8.50;;;7.20;1.00;;;;;;5095093;28;20171;-69
2021/03/23 00:17:15;;;;;;;10.70;7.60;;;7.30;1.00;;;;;;5094984;28;20168;-69
2021/03/23 00:19:40;;;;;;;11.47;8.17;;;7.40;1.00;;;;;;5094934;28;20177;-69
2021/03/23 00:22:06;;;;;;;11.10;8.43;;;7.40;1.00;;;;;;5094931;28;20729;-69
2021/03/23 00:24:31;;;;;;;10.03;7.50;;;7.30;1.00;;;;;;5094589;28;20169;-69
2021/03/23 00:26:57;;;;;;;10.47;7.93;;;7.30;1.00;;;;;;5094835;28;20301;-69
2021/03/23 00:29:22;;;;;;;10.50;8.17;;;7.40;1.00;;;;;;5094689;28;20532;-69
2021/03/23 00:31:48;;;;;;;11.80;7.97;;;7.30;1.00;;;;;;5094890;28;20183;-69
2021/03/23 00:34:13;;;;;;;14.00;8.87;;;7.40;1.00;;;;;;5094634;28;20243;-69
2021/03/23 00:36:41;;;;;;;10.17;8.87;;;7.20;1.00;;;;;;5094596;28;20187;-70
2021/03/23 00:39:09;;;;;;;10.90;7.95;;;7.10;1.00;;;;;;5094902;28;20174;-70
2021/03/23 00:41:38;;;;;;;14.87;9.27;;;7.00;1.00;;;;;;5094464;28;20191;-70
2021/03/23 00:44:09;;;;;;;10.70;7.70;;;7.30;1.00;;;;;;5094800;28;20409;-70
2021/03/23 00:46:34;;;;;;;14.02;8.60;;;7.30;1.00;;;;;;5094486;28;20209;-70
2021/03/23 00:49:00;;;;;;;19.30;8.07;;;7.20;1.00;;;;;;5094359;28;20555;-70
2021/03/23 00:51:25;;;;;;;11.53;8.43;;;7.10;1.00;;;;;;5095249;28;20265;-70
2021/03/23 00:53:51;;;;;;;12.37;8.13;;;7.30;1.00;;;;;;5095169;28;20644;-70
2021/03/23 00:56:16;;;;;;;11.10;8.30;;;7.10;1.00;;;;;;5093682;28;20553;-70
2021/03/23 00:58:42;;;;;;;9.90;8.27;;;7.10;1.00;;;;;;5095104;28;20166;-70
2021/03/23 01:01:07;;;;;;;10.90;7.80;;;7.20;1.00;;;;;;5094173;28;20529;-70
2021/03/23 01:03:33;;;;;;;13.33;8.33;;;7.30;1.00;;;;;;5094071;28;20191;-69
2021/03/23 01:05:58;;;;;;;9.40;7.87;;;7.10;1.00;;;;;;5094113;28;20169;-70
2021/03/23 01:08:24;;;;;;;14.67;8.13;;;7.20;1.00;;;;;;5093841;28;20210;-70
2021/03/23 01:10:49;;;;;;;10.03;8.40;;;7.10;1.00;;;;;;5094210;28;20207;-70
2021/03/23 01:13:15;;;;;;;10.07;8.23;;;7.00;1.00;;;;;;5094164;28;20713;-67
2021/03/23 01:15:40;;;;;;;17.17;9.03;;;7.20;1.00;;;;;;5093886;28;20225;-68
2021/03/23 01:18:06;;;;;;;8.90;7.57;;;7.00;1.00;;;;;;5093831;28;20172;-68
2021/03/23 01:20:32;;;;;;;9.70;7.77;;;7.10;1.00;;;;;;5093813;28;20210;-68
2021/03/23 01:22:59;;;;;;;9.90;8.02;;;7.10;1.00;;;;;;5093849;28;20187;-68
2021/03/23 01:25:25;;;;;;;12.05;7.53;;;7.10;1.00;;;;;;5093689;28;20534;-69
2021/03/23 01:27:50;;;;;;;11.77;8.30;;;7.20;1.00;;;;;;5093645;28;20202;-69
2021/03/23 01:30:22;;;;;;;11.57;8.17;;;7.10;1.00;;;;;;5093862;28;20620;-69
2021/03/23 01:32:48;;;;;;;7.75;6.88;;;7.10;1.00;;;;;;5093467;28;20218;-69
2021/03/23 01:35:15;;;;;;;10.52;7.15;;;7.00;1.00;;;;;;5092905;28;20167;-69
2021/03/23 01:37:41;;;;;;;9.98;7.63;;;6.90;1.00;;;;;;5093439;28;20191;-69
2021/03/23 01:40:07;;;;;;;19.77;9.55;;;7.10;1.00;;;;;;5093664;28;20183;-69
2021/03/23 01:42:44;;;;;;;10.38;7.72;;;7.00;1.00;;;;;;5093221;28;20193;-69
2021/03/23 01:45:24;;;;;;;12.27;8.43;;;6.80;1.00;;;;;;5093784;28;20178;-69
2021/03/23 01:47:51;;;;;;;10.57;8.05;;;6.90;1.00;;;;;;5093598;28;20254;-68
2021/03/23 01:50:18;;;;;;;11.15;9.10;;;6.90;1.00;;;;;;5093231;28;20629;-69
2021/03/23 01:52:46;;;;;;;13.55;8.45;;;7.00;1.00;;;;;;5093044;28;20258;-69
2021/03/23 01:55:13;;;;;;;10.07;7.57;;;6.90;1.00;;;;;;5093063;28;20163;-69
2021/03/23 01:57:39;;;;;;;11.32;8.13;;;6.90;1.00;;;;;;5093006;28;20167;-69
2021/03/23 02:00:09;;;;;;;15.18;8.98;;;6.90;1.00;;;;;;5092945;28;20176;-69
2021/03/23 02:02:36;;;;;;;11.77;8.73;;;6.80;1.00;;;;;;5092886;28;20187;-69
2021/03/23 02:05:03;;;;;;;10.95;9.02;;;6.80;1.00;;;;;;5092915;28;20510;-68
2021/03/23 02:07:29;;;;;;;12.32;9.00;;;6.90;1.00;;;;;;5092870;28;20664;-69
2021/03/23 02:09:55;;;;;;;11.80;7.97;;;7.00;1.00;;;;;;5092724;28;20289;-68
2021/03/23 02:12:28;;;;;;;13.40;10.60;;;6.90;1.00;;;;;;5092810;28;20214;-69
2021/03/23 02:14:55;;;;;;;13.93;10.27;;;7.00;1.00;;;;;;5092839;28;20166;-69
2021/03/23 02:17:32;;;;;;;11.07;8.35;;;7.00;1.00;;;;;;5093106;28;20540;-69
2021/03/23 02:20:10;;;;;;;13.52;10.68;;;7.00;1.00;;;;;;5092802;28;20205;-69
2021/03/23 02:22:41;;;;;;;15.75;10.50;;;7.00;1.00;;;;;;5092728;28;20278;-69
2021/03/23 02:25:17;;;;;;;15.90;9.25;;;7.00;1.00;;;;;;5093038;28;20514;-68
2021/03/23 02:27:43;;;;;;;15.52;10.55;;;6.80;1.00;;;;;;5092956;28;20648;-69
2021/03/23 02:30:21;;;;;;;15.83;11.87;;;6.90;1.00;;;;;;5092563;28;20194;-69
2021/03/23 02:32:47;;;;;;;13.98;9.75;;;6.90;1.00;;;;;;5092921;28;20198;-69
2021/03/23 02:35:13;;;;;;;16.70;11.40;;;6.80;1.00;;;;;;5091440;28;20168;-68
2021/03/23 02:37:39;;;;;;;15.40;10.90;;;6.80;1.00;;;;;;5092642;28;20206;-68
2021/03/23 02:40:06;;;;;;;16.10;11.60;;;7.10;1.00;;;;;;5092632;28;20405;-69
2021/03/23 02:42:31;;;;;;;15.65;11.45;;;7.00;1.00;;;;;;5092460;28;20210;-69
2021/03/23 02:44:57;;;;;;;16.40;12.33;;;6.80;1.00;;;;;;5092538;28;20168;-69
2021/03/23 02:47:22;;;;;;;13.20;9.97;;;6.90;1.00;;;;;;5095573;28;20167;-69
2021/03/23 02:49:48;;;;;;;21.07;13.57;;;6.90;1.00;;;;;;5096579;28;20330;-69
2021/03/23 02:52:13;;;;;;;17.33;12.80;;;6.80;1.00;;;;;;5095130;28;20188;-69
2021/03/23 02:54:40;;;;;;;17.60;12.17;;;6.90;1.00;;;;;;5096854;28;20259;-69
2021/03/23 02:57:06;;;;;;;16.58;11.60;;;7.00;1.00;;;;;;5096845;28;20217;-69
2021/03/23 02:59:32;;;;;;;19.15;12.55;;;7.10;1.00;;;;;;5096471;28;20183;-68
2021/03/23 03:01:57;;;;;;;15.50;11.13;;;7.10;1.00;;;;;;5096409;28;20568;-69
2021/03/23 03:04:23;;;;;;;17.40;12.30;;;7.00;1.00;;;;;;5096850;28;20220;-69
2021/03/23 03:06:48;;;;;;;16.03;11.33;;;7.10;1.00;;;;;;5096409;28;20541;-70
2021/03/23 03:09:14;;;;;;;22.33;13.70;;;7.00;1.00;;;;;;5096136;28;20198;-69
2021/03/23 03:11:40;;;;;;;21.00;13.30;;;7.20;1.00;;;;;;5096456;28;20175;-68
2021/03/23 03:14:05;;;;;;;24.90;14.30;;;7.20;1.00;;;;;;5096302;28;20269;-69
2021/03/23 03:16:31;;;;;;;19.23;12.73;;;7.00;1.00;;;;;;5096229;28;20247;-69
2021/03/23 03:18:57;;;;;;;18.60;13.80;;;7.10;1.00;;;;;;5096084;28;21080;-69
2021/03/23 03:21:22;;;;;;;31.83;21.07;;;7.20;1.00;;;;;;5095986;28;20163;-69
2021/03/23 03:23:48;;;;;;;25.37;15.00;;;7.20;1.00;;;;;;5095912;28;20195;-69
2021/03/23 03:26:14;;;;;;;18.40;14.23;;;7.50;1.00;;;;;;5094737;28;20172;-69
2021/03/23 03:28:40;;;;;;;18.70;13.00;;;7.50;1.00;;;;;;5095970;28;20509;-69
2021/03/23 03:31:06;;;;;;;21.40;14.60;;;7.30;1.00;;;;;;5096117;28;20308;-69
2021/03/23 03:33:31;;;;;;;17.25;11.60;;;7.20;1.00;;;;;;5095805;28;20183;-69
2021/03/23 03:35:57;;;;;;;19.70;13.10;;;7.00;1.00;;;;;;5096131;28;20224;-69
2021/03/23 03:38:25;;;;;;;20.10;14.23;;;7.10;1.00;;;;;;5095689;28;20532;-69
2021/03/23 03:40:57;;;;;;;23.58;15.02;;;7.20;1.00;;;;;;5096014;28;20167;-69
2021/03/23 03:43:26;;;;;;;25.50;15.10;;;7.30;1.00;;;;;;5095714;28;20618;-69
2021/03/23 03:45:51;;;;;;;22.27;15.30;;;7.30;1.00;;;;;;5095713;28;20178;-69
2021/03/23 03:48:17;;;;;;;22.10;15.57;;;7.20;1.00;;;;;;5095562;28;20167;-69
2021/03/23 03:50:43;;;;;;;21.83;14.50;;;7.20;1.00;;;;;;5095743;28;20441;-69
2021/03/23 03:53:10;;;;;;;25.90;14.90;;;7.00;1.00;;;;;;5095672;28;20734;-69
2021/03/23 03:55:38;;;;;;;25.02;16.52;;;6.90;1.00;;;;;;5095607;28;20221;-69
2021/03/23 03:58:03;;;;;;;25.38;15.98;;;7.10;1.00;;;;;;5094737;28;20163;-69
2021/03/23 04:00:30;;;;;;;24.50;17.93;;;7.00;1.00;;;;;;5095261;28;20582;-69
2021/03/23 04:02:57;;;;;;;24.70;16.48;;;6.90;1.00;;;;;;5095434;28;20206;-69
2021/03/23 04:05:29;;;;;;;24.17;16.48;;;7.00;1.00;;;;;;5095565;28;20224;-69
2021/03/23 04:07:55;;;;;;;28.45;17.25;;;7.10;1.00;;;;;;5095314;28;20163;-69
2021/03/23 04:10:22;;;;;;;27.63;16.30;;;7.10;1.00;;;;;;5095134;28;20562;-69
2021/03/23 04:12:48;;;;;;;25.17;16.60;;;7.10;1.00;;;;;;5095286;28;20436;-69
2021/03/23 04:15:38;;;;;;;26.85;18.15;;;7.00;1.00;;;;;;5095428;28;20527;-70
2021/03/23 04:18:05;;;;;;;24.52;16.92;;;7.00;1.00;;;;;;5095244;28;20168;-70
2021/03/23 04:20:32;;;;;;;27.90;19.08;;;6.90;1.00;;;;;;5094942;28;20191;-70
2021/03/23 04:22:58;;;;;;;28.95;17.23;;;7.00;1.00;;;;;;5094636;28;20210;-70
2021/03/23 04:25:27;;;;;;;27.10;17.07;;;7.10;1.00;;;;;;5094755;28;20168;-70
2021/03/23 04:27:53;;;;;;;25.00;17.85;;;7.00;1.00;;;;;;5094775;28;20471;-70
2021/03/23 04:30:20;;;;;;;29.60;18.13;;;6.90;1.00;;;;;;5094913;28;20286;-69
2021/03/23 04:32:47;;;;;;;39.85;19.15;;;6.90;1.00;;;;;;5094649;28;20450;-70
2021/03/23 04:35:32;;;;;;;28.92;18.88;;;6.80;1.00;;;;;;5094683;28;20171;-70
2021/03/23 04:37:58;;;;;;;30.33;17.98;;;6.80;1.00;;;;;;5094637;28;20160;-70
2021/03/23 04:40:23;;;;;;;25.87;18.17;;;6.80;1.00;;;;;;5094553;28;20513;-70
2021/03/23 04:42:49;;;;;;;31.90;19.47;;;7.00;1.00;;;;;;5094479;28;20607;-70
2021/03/23 04:45:18;;;;;;;28.20;18.77;;;7.10;1.00;;;;;;5094419;28;20167;-69
2021/03/23 04:47:44;;;;;;;32.83;20.40;;;7.20;1.00;;;;;;5094719;28;20757;-70
2021/03/23 04:50:10;;;;;;;28.83;19.33;;;7.30;1.00;;;;;;5094245;28;20191;-69
2021/03/23 04:52:36;;;;;;;26.30;18.48;;;7.20;1.00;;;;;;5094315;28;20188;-69
2021/03/23 04:55:01;;;;;;;28.60;17.53;;;7.20;1.00;;;;;;5094320;28;20216;-70
2021/03/23 04:57:27;;;;;;;29.37;20.77;;;7.10;1.00;;;;;;5094221;28;20222;-70
2021/03/23 04:59:52;;;;;;;29.40;19.77;;;7.10;1.00;;;;;;5094759;28;20510;-70
2021/03/23 05:02:18;;;;;;;27.13;17.60;;;7.20;1.00;;;;;;5094160;28;20256;-69
2021/03/23 05:04:43;;;;;;;31.37;18.57;;;7.10;1.00;;;;;;5094025;28;20233;-70
2021/03/23 05:07:09;;;;;;;27.07;19.43;;;6.80;1.00;;;;;;5093960;28;20186;-70
2021/03/23 05:09:34;;;;;;;28.33;19.83;;;6.80;1.00;;;;;;5092875;28;20210;-70
2021/03/23 05:12:00;;;;;;;30.83;18.43;;;7.00;1.00;;;;;;5094281;28;20191;-69
2021/03/23 05:14:25;;;;;;;28.07;18.87;;;7.00;1.00;;;;;;5093944;28;20193;-70
2021/03/23 05:16:51;;;;;;;34.47;20.57;;;7.00;1.00;;;;;;5094117;28;20578;-69
2021/03/23 05:19:16;;;;;;;34.30;20.60;;;7.00;1.00;;;;;;5093737;28;20254;-69
2021/03/23 05:21:42;;;;;;;30.40;20.60;;;7.10;1.00;;;;;;5093891;28;20172;-70
2021/03/23 05:24:09;;;;;;;36.97;23.43;;;7.10;1.00;;;;;;5093992;28;20540;-70
2021/03/23 05:26:34;;;;;;;36.17;23.17;;;7.20;1.00;;;;;;5094034;28;20258;-69
2021/03/23 05:29:00;;;;;;;30.43;20.27;;;7.20;1.00;;;;;;5093406;28;20631;-69
2021/03/23 05:31:25;;;;;;;28.00;17.97;;;7.10;1.00;;;;;;5093556;28;20167;-70
2021/03/23 05:33:53;;;;;;;30.40;18.70;;;6.90;1.00;;;;;;5093823;28;20248;-69
2021/03/23 05:36:19;;;;;;;30.70;19.08;;;6.90;1.00;;;;;;5093464;28;20739;-70
2021/03/23 05:38:45;;;;;;;28.67;19.13;;;6.80;1.00;;;;;;5093793;28;20655;-69
2021/03/23 05:41:29;;;;;;;29.20;20.43;;;6.70;1.00;;;;;;5093937;28;20168;-69
2021/03/23 05:44:29;;;;;;;29.38;18.92;;;6.80;1.00;;;;;;5093353;28;20238;-70
2021/03/23 05:46:55;;;;;;;30.05;20.58;;;6.80;1.00;;;;;;5093559;28;20159;-70
2021/03/23 05:49:34;;;;;;;34.63;21.33;;;7.00;1.00;;;;;;5093388;28;20676;-69
2021/03/23 05:52:06;;;;;;;30.75;19.80;;;7.20;1.00;;;;;;5093461;28;20187;-69
2021/03/23 05:54:47;;;;;;;29.15;19.20;;;7.20;1.00;;;;;;5093209;28;20154;-69
2021/03/23 05:57:31;;;;;;;27.02;20.00;;;7.20;1.00;;;;;;5093543;28;20206;-70
2021/03/23 06:00:18;;;;;;;31.05;20.88;;;7.20;1.00;;;;;;5093175;28;20162;-69
2021/03/23 06:02:51;;;;;;;33.80;18.90;;;7.10;1.00;;;;;;5092960;28;20654;-70
2021/03/23 06:05:45;;;;;;;36.67;20.27;;;7.00;1.00;;;;;;5093439;28;20187;-70
2021/03/23 06:08:28;;;;;;;29.17;20.17;;;6.90;1.00;;;;;;5092925;28;20205;-70
2021/03/23 06:11:33;;;;;;;32.38;20.73;;;7.20;1.00;;;;;;5093199;28;20187;-69
2021/03/23 06:14:36;;;;;;;33.13;19.73;;;7.20;1.00;;;;;;5092518;28;20656;-69
2021/03/23 06:17:25;;;;;;;38.55;20.40;;;7.30;1.00;;;;;;5093058;28;20163;-70
2021/03/23 06:20:16;;;;;;;33.17;21.20;;;7.40;1.00;;;;;;5093130;28;20528;-69
2021/03/23 06:22:59;;;;;;;32.13;19.15;;;7.40;1.00;;;;;;5092769;28;20655;-70
2021/03/23 06:25:40;;;;;;;34.22;20.63;;;7.30;1.00;;;;;;5092696;28;20200;-69
2021/03/23 06:28:54;;;;;;;36.55;20.20;;;7.40;1.00;;;;;;5093202;28;20155;-70
2021/03/23 06:31:39;;;;;;;33.80;20.35;;;7.30;1.00;;;;;;5093029;28;20222;-69
2021/03/23 06:34:18;;;;;;;37.45;20.95;;;7.30;1.00;;;;;;5090970;28;20176;-68
2021/03/23 06:36:44;;;;;;;36.47;23.00;;;7.50;1.00;;;;;;5092513;28;20238;-69
2021/03/23 06:39:10;;;;;;;42.03;21.20;;;7.50;1.00;;;;;;5092501;28;20263;-68
2021/03/23 06:41:51;;;;;;;37.45;22.38;;;7.50;1.00;;;;;;5092608;28;20199;-69
2021/03/23 06:44:23;;;;;;;36.35;20.90;;;7.50;1.00;;;;;;5092315;28;20160;-70
2021/03/23 06:46:52;;;;;;;33.83;20.48;;;7.50;1.00;;;;;;5092391;28;20168;-70
2021/03/23 06:49:47;;;;;;;34.33;20.52;;;7.60;1.00;;;;;;5092170;28;20202;-70
2021/03/23 06:52:19;;;;;;;35.97;21.05;;;7.60;1.00;;;;;;5074637;28;20195;-69
2021/03/23 06:55:05;;;;;;;35.60;22.85;;;7.60;1.00;;;;;;5092243;28;20163;-69
2021/03/23 06:57:35;;;;;;;37.40;22.00;;;7.60;1.00;;;;;;5092165;28;20704;-69
2021/03/23 07:00:14;;;;;;;39.67;20.95;;;7.70;1.00;;;;;;5092308;28;20159;-69
2021/03/23 07:02:46;;;;;;;36.30;21.55;;;7.80;1.00;;;;;;5092124;28;20195;-69
2021/03/23 07:05:17;;;;;;;36.22;24.15;;;7.80;1.00;;;;;;5091956;28;20148;-69
2021/03/23 07:07:53;;;;;;;38.75;22.27;;;7.80;1.00;;;;;;5092316;28;20640;-68
2021/03/23 07:10:22;;;;;;;33.92;20.38;;;7.80;1.00;;;;;;5092292;28;20183;-69
2021/03/23 07:12:50;;;;;;;35.22;21.55;;;7.80;1.00;;;;;;5091947;28;20263;-69
2021/03/23 07:15:31;;;;;;;41.42;22.08;;;7.90;1.00;;;;;;5093227;28;20164;-69
2021/03/23 07:18:08;;;;;;;32.97;20.60;;;7.80;1.00;;;;;;5092440;28;20178;-69
2021/03/23 07:20:33;;;;;;;32.03;21.80;;;7.90;1.00;;;;;;5092387;28;20246;-69
2021/03/23 07:23:19;;;;;;;38.97;22.63;;;7.70;1.00;;;;;;5092028;28;20264;-69
2021/03/23 07:25:45;;;;;;;32.70;21.60;;;7.70;1.00;;;;;;5078236;28;20215;-69
2021/03/23 07:28:18;;;;;;;42.63;21.83;;;8.00;1.00;;;;;;5092073;28;20253;-69
2021/03/23 07:30:50;;;;;;;30.35;21.75;;;8.00;1.00;;;;;;5092002;28;20802;-68
2021/03/23 07:33:51;;;;;;;31.70;20.58;;;8.00;1.00;;;;;;5091705;28;20214;-68
2021/03/23 07:36:28;;;;;;;37.40;21.10;;;7.80;1.00;;;;;;5095837;28;20671;-68
2021/03/23 07:39:20;;;;;;;33.33;22.13;;;8.10;1.00;;;;;;5095661;28;20156;-69
2021/03/23 07:41:51;;;;;;;36.25;22.48;;;8.00;1.00;;;;;;5095786;28;20197;-69
2021/03/23 07:44:32;;;;;;;38.85;23.73;;;8.10;1.00;;;;;;5095575;28;20215;-69
2021/03/23 07:47:01;;;;;;;48.38;21.83;;;8.00;1.00;;;;;;5095512;28;20190;-68
2021/03/23 07:49:41;;;;;;;45.30;22.45;;;8.00;1.00;;;;;;5095031;28;20191;-68
2021/03/23 07:52:22;;;;;;;34.90;20.40;;;8.20;1.00;;;;;;5095540;28;20190;-69
2021/03/23 07:54:48;;;;;;;35.67;23.10;;;8.30;1.00;;;;;;5095358;28;20164;-68
2021/03/23 07:57:47;;;;;;;43.07;20.87;;;8.20;1.00;;;;;;5095308;28;20171;-69
2021/03/23 08:00:26;;;;;;;32.00;21.73;;;8.20;1.00;;;;;;5095348;28;20402;-69
2021/03/23 08:03:20;;;;;;;32.63;20.92;;;8.20;1.00;;;;;;5095586;28;20282;-69
2021/03/23 08:05:53;;;;;;;37.90;21.52;;;8.30;1.00;;;;;;5095551;28;20478;-70
2021/03/23 08:08:45;;;;;;;33.38;21.48;;;8.40;1.00;;;;;;5094913;28;20187;-69
2021/03/23 08:11:43;;;;;;;33.95;21.92;;;8.40;1.00;;;;;;5095500;28;20214;-70
2021/03/23 08:14:26;;;;;;;35.00;21.35;;;8.50;1.00;;;;;;5095302;28;20636;-68
2021/03/23 08:17:06;;;;;;;36.92;22.25;;;8.40;1.00;;;;;;5094870;28;20198;-68
2021/03/23 08:20:09;;;;;;;36.50;22.90;;;8.30;1.00;;;;;;5095197;28;20620;-68
2021/03/23 08:22:52;;;;;;;34.35;21.77;;;8.40;1.00;;;;;;5095100;28;20255;-70
2021/03/23 08:25:45;;;;;;;34.53;21.08;;;8.50;1.00;;;;;;5094594;28;20160;-68
2021/03/23 08:28:20;;;;;;;35.25;21.48;;;8.50;1.00;;;;;;5094760;28;20588;-69
2021/03/23 08:31:10;;;;;;;37.33;22.63;;;8.50;1.00;;;;;;5094695;28;20205;-69
2021/03/23 08:33:51;;;;;;;37.80;22.08;;;8.40;1.00;;;;;;5094895;28;20187;-69
2021/03/23 08:36:35;;;;;;;36.40;20.90;;;8.40;1.00;;;;;;5094952;28;20232;-69
2021/03/23 08:39:11;;;;;;;36.50;22.67;;;8.50;1.00;;;;;;5095121;28;20184;-69
2021/03/23 08:41:54;;;;;;;34.88;22.48;;;8.70;1.00;;;;;;5094752;28;20175;-69
2021/03/23 08:44:33;;;;;;;33.35;20.83;;;8.80;1.00;;;;;;5094091;28;20232;-69
2021/03/23 08:47:27;;;;;;;32.67;19.77;;;8.90;1.00;;;;;;5094138;28;20164;-70
2021/03/23 08:49:55;;;;;;;30.93;20.10;;;8.70;1.00;;;;;;5094307;28;20187;-68
2021/03/23 08:52:43;;;;;;;35.90;22.00;;;8.80;1.00;;;;;;5094214;28;20418;-68
2021/03/23 08:55:26;;;;;;;33.45;20.27;;;9.00;1.00;;;;;;5094136;28;20890;-69
2021/03/23 08:58:05;;;;;;;34.50;22.73;;;9.00;1.00;;;;;;5093908;28;20172;-69
2021/03/23 09:00:37;;;;;;;33.93;20.43;;;9.20;1.00;;;;;;5092651;28;20221;-69
2021/03/23 09:03:08;;;;;;;34.97;20.93;;;9.20;1.00;;;;;;5094026;28;20446;-69
2021/03/23 09:05:54;;;;;;;33.92;22.17;;;9.00;1.00;;;;;;5094286;28;20416;-69
2021/03/23 09:08:40;;;;;;;31.55;20.77;;;9.10;1.00;;;;;;5093957;28;20556;-69
2021/03/23 09:11:09;;;;;;;33.83;20.37;;;9.20;1.00;;;;;;5093727;28;20191;-69
2021/03/23 09:13:34;;;;;;;37.92;22.00;;;9.20;1.00;;;;;;5093698;28;20428;-69
2021/03/23 09:16:02;;;;;;;35.73;21.03;;;9.20;1.00;;;;;;5092455;28;20266;-69
2021/03/23 09:18:30;;;;;;;34.70;20.70;;;9.10;1.00;;;;;;5094335;28;20670;-68
2021/03/23 09:21:03;;;;;;;38.95;19.42;;;9.20;1.00;;;;;;5093803;28;20190;-69
2021/03/23 09:23:51;;;;;;;35.55;20.30;;;9.40;1.00;;;;;;5093368;28;20660;-69
2021/03/23 09:26:38;;;;;;;31.23;20.77;;;9.40;1.00;;;;;;5092048;28;20217;-69
2021/03/23 09:29:35;;;;;;;31.97;20.43;;;9.50;1.00;;;;;;5093398;28;20409;-70
2021/03/23 09:32:03;;;;;;;34.60;20.30;;;9.50;1.00;;;;;;5093099;28;20422;-69
2021/03/23 09:35:17;;;;;;;30.30;19.50;;;9.50;1.00;;;;;;5093149;28;20403;-69
2021/03/23 09:37:55;;;;;;;30.80;21.23;;;9.70;1.00;;;;;;5093418;28;20384;-69
2021/03/23 09:40:21;;;;;;;32.20;19.23;;;9.60;1.00;;;;;;5093544;28;20644;-68
2021/03/23 09:43:22;;;;;;;33.77;19.47;;;9.80;1.00;;;;;;5093365;28;20434;-70
2021/03/23 09:45:48;;;;;;;35.83;19.98;;;9.80;1.00;;;;;;5093689;28;20649;-69
2021/03/23 09:48:13;;;;;;;37.17;19.43;;;10.00;1.00;;;;;;5093086;28;20198;-68
2021/03/23 09:50:50;;;;;;;39.60;22.40;;;9.90;1.00;;;;;;5093137;28;20191;-69
2021/03/23 09:53:28;;;;;;;32.17;19.90;;;10.10;1.00;;;;;;5093143;28;20262;-69
2021/03/23 09:56:01;;;;;;;31.77;19.47;;;10.20;1.00;;;;;;5093073;28;20424;-69
2021/03/23 09:58:27;;;;;;;32.83;19.87;;;10.50;1.00;;;;;;5093331;28;20481;-69
2021/03/23 10:01:07;;;;;;;32.07;18.70;;;10.70;1.00;;;;;;5093201;28;20924;-69
2021/03/23 10:03:36;;;;;;;27.47;18.50;;;10.30;1.00;;;;;;5091816;28;20554;-69
2021/03/23 10:06:09;;;;;;;27.70;18.27;;;10.50;1.00;;;;;;5092664;28;20415;-69
2021/03/23 10:08:35;;;;;;;36.30;19.70;;;11.20;1.00;;;;;;5092779;28;20433;-69
2021/03/23 10:11:20;;;;;;;34.03;18.50;;;11.40;1.00;;;;;;5091738;28;20464;-69
2021/03/23 10:14:01;;;;;;;30.53;16.70;;;11.20;1.00;;;;;;5092799;28;20428;-70
2021/03/23 10:16:28;;;;;;;7.97;6.57;;;11.40;1.00;;;;;;5092472;28;20524;-67
2021/03/23 10:18:54;;;;;;;18.17;10.93;;;13.00;1.00;;;;;;5092980;28;20890;-69
2021/03/23 10:21:26;;;;;;;22.53;13.73;;;13.70;1.00;;;;;;5094095;28;20475;-67
2021/03/23 10:23:56;;;;;;;29.33;19.33;;;14.00;1.00;;;;;;5094846;28;20523;-68
2021/03/23 10:26:32;;;;;;;27.30;17.90;;;13.20;1.00;;;;;;5093827;28;20405;-68
2021/03/23 10:29:10;;;;;;;28.50;17.73;;;12.00;99.90;;;;;;5094084;28;20892;-70
2021/03/23 10:31:39;;;;;;;28.33;17.13;;;11.50;1.00;;;;;;5094569;28;20405;-70
2021/03/23 10:34:12;;;;;;;26.07;17.10;;;11.70;1.00;;;;;;5094513;28;20450;-67
2021/03/23 10:37:05;;;;;;;24.17;15.47;;;11.30;1.00;;;;;;5094678;28;20397;-69
2021/03/23 10:39:39;;;;;;;25.70;17.67;;;11.30;1.00;;;;;;5093367;28;20720;-71
2021/03/23 10:42:24;;;;;;;29.33;17.10;;;12.00;1.00;;;;;;5092600;28;20425;-67
2021/03/23 10:44:52;;;;;;;24.37;16.60;;;12.30;1.00;;;;;;5092526;28;20402;-69
2021/03/23 10:47:39;;;;;;;28.97;17.40;;;12.00;1.00;;;;;;5091244;28;20414;-69
2021/03/23 10:50:24;;;;;;;29.07;18.17;;;12.40;1.00;;;;;;5092389;28;20444;-69
2021/03/23 10:52:51;;;;;;;25.37;16.20;;;11.60;99.90;;;;;;5092192;28;20432;-69
2021/03/23 10:55:33;;;;;;;26.67;17.97;;;11.90;1.00;;;;;;5092514;28;20405;-68
2021/03/23 10:58:18;;;;;;;28.00;17.13;;;12.40;1.00;;;;;;5092370;28;20378;-70
2021/03/23 11:00:45;;;;;;;32.43;17.43;;;12.40;99.90;;;;;;5092530;28;20491;-68
2021/03/23 11:03:34;;;;;;;23.70;16.60;;;12.70;99.90;;;;;;5092078;28;20429;-68
2021/03/23 11:06:01;;;;;;;24.07;17.23;;;12.30;99.90;;;;;;5092028;28;20912;-68
2021/03/23 11:08:27;;;;;;;27.47;15.60;;;12.60;99.90;;;;;;5093903;28;20552;-68
2021/03/23 11:10:56;;;;;;;27.93;17.67;;;12.40;99.90;;;;;;5096252;28;20441;-68
2021/03/23 11:13:22;;;;;;;26.50;15.53;;;12.60;99.90;;;;;;5096014;28;20447;-68
2021/03/23 11:15:49;;;;;;;26.10;16.77;;;12.90;99.90;;;;;;5096190;28;20413;-69
2021/03/23 11:18:37;;;;;;;29.47;16.97;;;12.70;99.90;;;;;;5096336;28;20629;-71
2021/03/23 11:21:08;;;;;;;27.80;16.80;;;12.20;99.90;;;;;;5096947;28;20898;-72
2021/03/23 11:23:38;;;;;;;24.30;16.90;;;11.80;99.90;;;;;;5096722;28;20991;-69
2021/03/23 11:26:06;;;;;;;29.60;17.67;;;12.10;99.90;;;;;;5096820;28;20823;-72
2021/03/23 11:28:32;;;;;;;29.43;16.73;;;12.30;99.90;;;;;;5097197;28;20444;-71
2021/03/23 11:31:01;;;;;;;33.53;18.30;;;12.80;99.90;;;;;;5097110;28;20895;-70
2021/03/23 11:33:27;;;;;;;29.47;16.90;;;12.30;99.90;;;;;;5096911;28;20191;-69
2021/03/23 11:35:52;;;;;;;30.93;19.80;;;11.90;99.90;;;;;;5097164;28;20902;-69
2021/03/23 11:38:19;;;;;;;29.37;16.60;;;12.30;99.90;;;;;;5095611;28;20176;-70
2021/03/23 11:40:45;;;;;;;25.00;16.63;;;12.30;99.90;;;;;;5096065;28;20416;-71
2021/03/23 11:43:37;;;;;;;31.43;16.43;;;12.60;99.90;;;;;;5094823;28;20494;-69
2021/03/23 11:46:21;;;;;;;27.00;17.07;;;12.50;99.90;;;;;;5085269;28;20395;-69
2021/03/23 11:48:51;;;;;;;24.47;15.00;;;12.40;99.90;;;;;;5095715;28;20363;-68
2021/03/23 11:51:21;;;;;;;28.07;17.37;;;12.50;99.90;;;;;;5095272;28;20449;-68
2021/03/23 11:53:46;;;;;;;26.47;14.87;;;12.60;99.90;;;;;;5093976;28;20449;-68
2021/03/23 11:56:12;;;;;;;26.20;18.17;;;12.30;99.90;;;;;;5095387;28;20409;-68
2021/03/23 11:58:38;;;;;;;23.70;16.77;;;12.20;99.90;;;;;;5094931;28;20441;-68
2021/03/23 12:01:04;;;;;;;26.67;15.63;;;12.10;99.90;;;;;;5095240;28;20642;-68
2021/03/23 12:03:30;;;;;;;29.73;17.77;;;11.70;99.90;;;;;;5095183;28;20408;-69
2021/03/23 12:05:56;;;;;;;29.70;16.70;;;11.50;99.90;;;;;;5095665;28;20744;-71
2021/03/23 12:08:39;;;;;;;30.57;16.63;;;11.90;99.90;;;;;;5095718;28;20240;-68
2021/03/23 12:11:08;;;;;;;22.90;16.60;;;12.00;99.90;;;;;;5095285;28;20183;-71
2021/03/23 12:13:52;;;;;;;27.90;17.07;;;12.20;99.90;;;;;;5095612;28;20867;-69
2021/03/23 12:16:41;;;;;;;24.60;16.70;;;12.00;99.90;;;;;;5094693;28;20462;-71
2021/03/23 12:19:08;;;;;;;25.20;17.80;;;12.40;99.90;;;;;;5094448;28;20382;-68
2021/03/23 12:21:35;;;;;;;27.20;17.73;;;12.20;99.90;;;;;;5094795;28;20699;-68
2021/03/23 12:24:01;;;;;;;34.13;18.53;;;12.60;99.90;;;;;;5094088;28;20777;-68
2021/03/23 12:26:27;;;;;;;25.03;16.83;;;12.70;99.90;;;;;;5094354;28;20437;-68
2021/03/23 12:28:52;;;;;;;28.03;18.97;;;13.10;99.90;;;;;;5094042;28;20492;-68
2021/03/23 12:31:18;;;;;;;37.70;18.87;;;12.90;99.90;;;;;;5093593;28;20552;-68
2021/03/23 12:33:45;;;;;;;29.57;18.47;;;13.20;99.90;;;;;;5094017;28;20187;-68
2021/03/23 12:36:13;;;;;;;25.03;17.47;;;12.80;99.90;;;;;;5093957;28;20500;-68
2021/03/23 12:38:42;;;;;;;30.33;18.97;;;12.70;99.90;;;;;;5094533;28;20404;-68
2021/03/23 12:41:26;;;;;;;26.13;17.53;;;12.90;99.90;;;;;;5095366;28;20728;-68
2021/03/23 12:43:52;;;;;;;29.40;18.23;;;12.80;99.90;;;;;;5094431;28;20436;-68
2021/03/23 12:46:18;;;;;;;29.00;15.83;;;12.30;99.90;;;;;;5094094;28;20397;-69
2021/03/23 12:48:44;;;;;;;29.03;18.43;;;12.70;99.90;;;;;;5094184;28;20606;-69
2021/03/23 12:51:33;;;;;;;27.13;17.80;;;12.50;99.90;;;;;;5094151;28;20452;-69
2021/03/23 12:53:58;;;;;;;24.27;16.03;;;12.60;99.90;;;;;;5094332;28;20382;-69
2021/03/23 12:56:24;;;;;;;26.23;17.87;;;12.90;99.90;;;;;;5094307;28;20421;-69
2021/03/23 12:58:51;;;;;;;33.93;19.17;;;13.20;99.90;;;;;;5094418;28;20545;-69
2021/03/23 13:01:18;;;;;;;28.60;17.80;;;13.00;99.90;;;;;;5094094;28;20183;-69
2021/03/23 13:03:43;;;;;;;27.43;18.13;;;12.90;99.90;;;;;;5094325;28;20772;-69
2021/03/23 13:06:21;;;;;;;27.33;18.43;;;13.10;99.90;;;;;;5094768;28;20405;-69
2021/03/23 13:08:47;;;;;;;30.93;20.23;;;12.80;99.90;;;;;;5093855;28;20187;-69
2021/03/23 13:11:20;;;;;;;23.30;18.43;;;12.70;99.90;;;;;;5094168;28;20457;-68